sensor_id;sensor_type;location;lat;lon;timestamp;P1;durP1;ratioP1;P2;durP2;ratioP2
6205;SDS011;3136;48.788;9.772;2023-02-28T00:00:43;5.47;;;2.60;;
6205;SDS011;3136;48.788;9.772;2023-02-28T00:03:09;5.00;;;2.57;;
6205;SDS011;3136;48.788;9.772;2023-02-28T00:05:34;3.87;;;2.50;;
6205;SDS011;3136;48.788;9.772;2023-02-28T00:08:00;4.23;;;2.60;;
6205;SDS011;3136;48.788;9.772;2023-02-28T00:10:26;3.63;;;2.43;;
6205;SDS011;3136;48.788;9.772;2023-02-28T00:12:54;7.20;;;2.60;;
6205;SDS011;3136;48.788;9.772;2023-02-28T00:15:24;3.90;;;2.37;;
6205;SDS011;3136;48.788;9.772;2023-02-28T00:17:50;4.83;;;2.60;;
6205;SDS011;3136;48.788;9.772;2023-02-28T00:20:16;4.47;;;2.50;;
6205;SDS011;3136;48.788;9.772;2023-02-28T00:22:45;4.20;;;2.60;;
6205;SDS011;3136;48.788;9.772;2023-02-28T00:25:13;3.60;;;2.40;;
6205;SDS011;3136;48.788;9.772;2023-02-28T00:27:41;4.67;;;2.50;;
6205;SDS011;3136;48.788;9.772;2023-02-28T00:30:11;6.53;;;2.90;;
6205;SDS011;3136;48.788;9.772;2023-02-28T00:32:38;5.03;;;2.70;;
6205;SDS011;3136;48.788;9.772;2023-02-28T00:35:04;5.93;;;2.60;;
6205;SDS011;3136;48.788;9.772;2023-02-28T00:37:30;3.67;;;2.70;;
6205;SDS011;3136;48.788;9.772;2023-02-28T00:39:56;4.47;;;2.80;;
6205;SDS011;3136;48.788;9.772;2023-02-28T00:42:22;5.60;;;2.80;;
6205;SDS011;3136;48.788;9.772;2023-02-28T00:44:48;4.00;;;2.67;;
6205;SDS011;3136;48.788;9.772;2023-02-28T00:47:14;3.13;;;2.40;;
6205;SDS011;3136;48.788;9.772;2023-02-28T00:49:39;4.60;;;2.90;;
6205;SDS011;3136;48.788;9.772;2023-02-28T00:52:05;3.73;;;2.50;;
6205;SDS011;3136;48.788;9.772;2023-02-28T00:54:30;5.43;;;2.83;;
6205;SDS011;3136;48.788;9.772;2023-02-28T00:56:56;3.97;;;2.60;;
6205;SDS011;3136;48.788;9.772;2023-02-28T00:59:21;4.07;;;2.80;;
6205;SDS011;3136;48.788;9.772;2023-02-28T01:01:47;4.83;;;2.70;;
6205;SDS011;3136;48.788;9.772;2023-02-28T01:04:13;3.87;;;2.70;;
6205;SDS011;3136;48.788;9.772;2023-02-28T01:06:39;3.20;;;2.67;;
6205;SDS011;3136;48.788;9.772;2023-02-28T01:09:05;3.57;;;2.57;;
6205;SDS011;3136;48.788;9.772;2023-02-28T01:11:32;5.10;;;3.07;;
6205;SDS011;3136;48.788;9.772;2023-02-28T01:13:59;4.30;;;3.03;;
6205;SDS011;3136;48.788;9.772;2023-02-28T01:16:25;5.00;;;3.03;;
6205;SDS011;3136;48.788;9.772;2023-02-28T01:18:51;5.00;;;2.90;;
6205;SDS011;3136;48.788;9.772;2023-02-28T01:21:17;3.53;;;2.70;;
6205;SDS011;3136;48.788;9.772;2023-02-28T01:23:45;6.80;;;3.27;;
6205;SDS011;3136;48.788;9.772;2023-02-28T01:26:12;5.50;;;3.13;;
6205;SDS011;3136;48.788;9.772;2023-02-28T01:28:42;4.70;;;3.10;;
6205;SDS011;3136;48.788;9.772;2023-02-28T01:31:08;5.03;;;3.00;;
6205;SDS011;3136;48.788;9.772;2023-02-28T01:33:35;5.37;;;3.27;;
6205;SDS011;3136;48.788;9.772;2023-02-28T01:36:02;5.07;;;3.27;;
6205;SDS011;3136;48.788;9.772;2023-02-28T01:38:33;5.77;;;3.43;;
6205;SDS011;3136;48.788;9.772;2023-02-28T01:40:59;7.20;;;3.30;;
6205;SDS011;3136;48.788;9.772;2023-02-28T01:43:39;4.63;;;3.23;;
6205;SDS011;3136;48.788;9.772;2023-02-28T01:46:14;5.13;;;3.27;;
6205;SDS011;3136;48.788;9.772;2023-02-28T01:48:41;5.03;;;3.30;;
6205;SDS011;3136;48.788;9.772;2023-02-28T01:51:14;5.63;;;3.50;;
6205;SDS011;3136;48.788;9.772;2023-02-28T01:53:51;6.07;;;3.20;;
6205;SDS011;3136;48.788;9.772;2023-02-28T01:56:23;5.17;;;3.33;;
6205;SDS011;3136;48.788;9.772;2023-02-28T01:58:52;3.90;;;2.70;;
6205;SDS011;3136;48.788;9.772;2023-02-28T02:01:20;5.73;;;3.30;;
6205;SDS011;3136;48.788;9.772;2023-02-28T02:03:52;3.70;;;3.07;;
6205;SDS011;3136;48.788;9.772;2023-02-28T02:06:22;4.30;;;2.97;;
6205;SDS011;3136;48.788;9.772;2023-02-28T02:08:49;4.27;;;3.10;;
6205;SDS011;3136;48.788;9.772;2023-02-28T02:11:17;5.17;;;3.63;;
6205;SDS011;3136;48.788;9.772;2023-02-28T02:35:15;4.83;;;3.23;;
6205;SDS011;3136;48.788;9.772;2023-02-28T02:37:51;4.30;;;3.10;;
6205;SDS011;3136;48.788;9.772;2023-02-28T02:40:33;5.00;;;3.50;;
6205;SDS011;3136;48.788;9.772;2023-02-28T02:46:07;8.80;;;3.63;;
6205;SDS011;3136;48.788;9.772;2023-02-28T02:48:37;7.10;;;3.50;;
6205;SDS011;3136;48.788;9.772;2023-02-28T02:51:23;5.90;;;3.53;;
6205;SDS011;3136;48.788;9.772;2023-02-28T02:53:52;5.07;;;3.47;;
6205;SDS011;3136;48.788;9.772;2023-02-28T02:56:36;4.30;;;3.20;;
6205;SDS011;3136;48.788;9.772;2023-02-28T02:59:07;4.93;;;3.53;;
6205;SDS011;3136;48.788;9.772;2023-02-28T03:01:36;5.20;;;3.70;;
6205;SDS011;3136;48.788;9.772;2023-02-28T03:04:04;8.47;;;3.77;;
6205;SDS011;3136;48.788;9.772;2023-02-28T03:06:34;5.43;;;3.57;;
6205;SDS011;3136;48.788;9.772;2023-02-28T03:09:00;5.47;;;3.57;;
6205;SDS011;3136;48.788;9.772;2023-02-28T03:11:27;6.47;;;4.00;;
6205;SDS011;3136;48.788;9.772;2023-02-28T03:24:54;6.20;;;4.03;;
6205;SDS011;3136;48.788;9.772;2023-02-28T03:27:45;5.20;;;3.70;;
6205;SDS011;3136;48.788;9.772;2023-02-28T03:32:56;7.17;;;4.00;;
6205;SDS011;3136;48.788;9.772;2023-02-28T03:35:45;11.00;;;3.87;;
6205;SDS011;3136;48.788;9.772;2023-02-28T03:40:58;5.03;;;3.83;;
6205;SDS011;3136;48.788;9.772;2023-02-28T03:43:53;4.93;;;3.60;;
6205;SDS011;3136;48.788;9.772;2023-02-28T03:46:23;6.43;;;3.97;;
6205;SDS011;3136;48.788;9.772;2023-02-28T03:49:02;6.77;;;4.10;;
6205;SDS011;3136;48.788;9.772;2023-02-28T03:51:43;5.97;;;3.80;;
6205;SDS011;3136;48.788;9.772;2023-02-28T03:54:27;7.00;;;4.10;;
6205;SDS011;3136;48.788;9.772;2023-02-28T03:57:58;5.73;;;3.50;;
6205;SDS011;3136;48.788;9.772;2023-02-28T04:00:33;7.53;;;3.77;;
6205;SDS011;3136;48.788;9.772;2023-02-28T04:03:02;6.00;;;4.00;;
6205;SDS011;3136;48.788;9.772;2023-02-28T04:05:29;6.67;;;4.07;;
6205;SDS011;3136;48.788;9.772;2023-02-28T04:08:02;5.97;;;4.00;;
6205;SDS011;3136;48.788;9.772;2023-02-28T04:10:29;7.10;;;4.20;;
6205;SDS011;3136;48.788;9.772;2023-02-28T04:12:55;6.20;;;3.67;;
6205;SDS011;3136;48.788;9.772;2023-02-28T04:15:20;5.80;;;3.83;;
6205;SDS011;3136;48.788;9.772;2023-02-28T04:17:48;6.77;;;4.13;;
6205;SDS011;3136;48.788;9.772;2023-02-28T04:20:13;6.50;;;4.23;;
6205;SDS011;3136;48.788;9.772;2023-02-28T04:22:39;9.33;;;4.50;;
6205;SDS011;3136;48.788;9.772;2023-02-28T04:25:04;6.50;;;4.40;;
6205;SDS011;3136;48.788;9.772;2023-02-28T04:27:30;7.93;;;4.10;;
6205;SDS011;3136;48.788;9.772;2023-02-28T04:29:56;7.10;;;4.03;;
6205;SDS011;3136;48.788;9.772;2023-02-28T04:32:21;6.73;;;4.33;;
6205;SDS011;3136;48.788;9.772;2023-02-28T04:34:47;6.90;;;4.60;;
6205;SDS011;3136;48.788;9.772;2023-02-28T04:37:12;6.67;;;4.10;;
6205;SDS011;3136;48.788;9.772;2023-02-28T04:39:38;6.53;;;4.40;;
6205;SDS011;3136;48.788;9.772;2023-02-28T04:42:04;8.90;;;4.40;;
6205;SDS011;3136;48.788;9.772;2023-02-28T04:44:30;6.03;;;4.40;;
6205;SDS011;3136;48.788;9.772;2023-02-28T04:46:56;6.53;;;4.57;;
6205;SDS011;3136;48.788;9.772;2023-02-28T04:49:22;6.83;;;4.47;;
6205;SDS011;3136;48.788;9.772;2023-02-28T04:51:47;6.43;;;4.30;;
6205;SDS011;3136;48.788;9.772;2023-02-28T04:54:14;6.43;;;4.47;;
6205;SDS011;3136;48.788;9.772;2023-02-28T04:56:41;8.10;;;4.17;;
6205;SDS011;3136;48.788;9.772;2023-02-28T04:59:06;5.50;;;4.30;;
6205;SDS011;3136;48.788;9.772;2023-02-28T05:01:33;6.50;;;4.43;;
6205;SDS011;3136;48.788;9.772;2023-02-28T05:04:00;6.67;;;4.77;;
6205;SDS011;3136;48.788;9.772;2023-02-28T05:06:27;10.23;;;4.70;;
6205;SDS011;3136;48.788;9.772;2023-02-28T05:08:54;6.47;;;4.30;;
6205;SDS011;3136;48.788;9.772;2023-02-28T05:13:47;9.53;;;4.90;;
6205;SDS011;3136;48.788;9.772;2023-02-28T05:16:13;6.97;;;4.17;;
6205;SDS011;3136;48.788;9.772;2023-02-28T05:18:39;6.50;;;4.17;;
6205;SDS011;3136;48.788;9.772;2023-02-28T05:21:04;8.53;;;4.50;;
6205;SDS011;3136;48.788;9.772;2023-02-28T05:23:30;6.53;;;4.37;;
6205;SDS011;3136;48.788;9.772;2023-02-28T05:25:56;7.93;;;4.87;;
6205;SDS011;3136;48.788;9.772;2023-02-28T05:28:22;9.40;;;5.23;;
6205;SDS011;3136;48.788;9.772;2023-02-28T05:30:47;8.57;;;4.53;;
6205;SDS011;3136;48.788;9.772;2023-02-28T05:33:13;8.70;;;4.73;;
6205;SDS011;3136;48.788;9.772;2023-02-28T05:35:39;8.60;;;4.97;;
6205;SDS011;3136;48.788;9.772;2023-02-28T05:38:07;6.60;;;4.57;;
6205;SDS011;3136;48.788;9.772;2023-02-28T05:40:33;7.63;;;5.10;;
6205;SDS011;3136;48.788;9.772;2023-02-28T05:42:59;10.37;;;5.30;;
6205;SDS011;3136;48.788;9.772;2023-02-28T05:45:24;7.53;;;5.10;;
6205;SDS011;3136;48.788;9.772;2023-02-28T05:47:53;8.50;;;4.87;;
6205;SDS011;3136;48.788;9.772;2023-02-28T05:50:19;8.33;;;4.77;;
6205;SDS011;3136;48.788;9.772;2023-02-28T05:52:49;7.80;;;5.30;;
6205;SDS011;3136;48.788;9.772;2023-02-28T05:55:15;8.10;;;4.87;;
6205;SDS011;3136;48.788;9.772;2023-02-28T05:57:40;8.07;;;5.40;;
6205;SDS011;3136;48.788;9.772;2023-02-28T06:00:07;7.83;;;5.27;;
6205;SDS011;3136;48.788;9.772;2023-02-28T06:02:33;8.07;;;5.20;;
6205;SDS011;3136;48.788;9.772;2023-02-28T06:04:59;8.87;;;5.30;;
6205;SDS011;3136;48.788;9.772;2023-02-28T06:07:24;8.07;;;5.40;;
6205;SDS011;3136;48.788;9.772;2023-02-28T06:09:50;9.07;;;5.10;;
6205;SDS011;3136;48.788;9.772;2023-02-28T06:12:15;8.40;;;5.40;;
6205;SDS011;3136;48.788;9.772;2023-02-28T06:14:41;9.97;;;5.73;;
6205;SDS011;3136;48.788;9.772;2023-02-28T06:17:06;8.70;;;5.70;;
6205;SDS011;3136;48.788;9.772;2023-02-28T06:19:33;7.93;;;5.57;;
6205;SDS011;3136;48.788;9.772;2023-02-28T06:21:59;10.07;;;5.83;;
6205;SDS011;3136;48.788;9.772;2023-02-28T06:24:25;9.63;;;6.17;;
6205;SDS011;3136;48.788;9.772;2023-02-28T06:26:53;9.40;;;5.40;;
6205;SDS011;3136;48.788;9.772;2023-02-28T06:29:18;11.37;;;5.60;;
6205;SDS011;3136;48.788;9.772;2023-02-28T06:31:44;9.83;;;5.63;;
6205;SDS011;3136;48.788;9.772;2023-02-28T06:34:11;9.33;;;6.23;;
6205;SDS011;3136;48.788;9.772;2023-02-28T06:36:37;8.40;;;5.30;;
6205;SDS011;3136;48.788;9.772;2023-02-28T06:39:04;9.33;;;5.77;;
6205;SDS011;3136;48.788;9.772;2023-02-28T06:41:30;8.80;;;5.57;;
6205;SDS011;3136;48.788;9.772;2023-02-28T06:43:55;8.37;;;6.17;;
6205;SDS011;3136;48.788;9.772;2023-02-28T06:46:21;12.77;;;6.80;;
6205;SDS011;3136;48.788;9.772;2023-02-28T06:48:48;13.17;;;7.33;;
6205;SDS011;3136;48.788;9.772;2023-02-28T06:51:17;8.80;;;6.33;;
6205;SDS011;3136;48.788;9.772;2023-02-28T06:53:47;13.67;;;7.67;;
6205;SDS011;3136;48.788;9.772;2023-02-28T06:56:14;12.17;;;6.40;;
6205;SDS011;3136;48.788;9.772;2023-02-28T06:58:40;11.60;;;7.07;;
6205;SDS011;3136;48.788;9.772;2023-02-28T07:01:06;11.27;;;6.80;;
6205;SDS011;3136;48.788;9.772;2023-02-28T07:03:32;9.77;;;6.13;;
6205;SDS011;3136;48.788;9.772;2023-02-28T07:05:59;15.33;;;7.40;;
6205;SDS011;3136;48.788;9.772;2023-02-28T07:08:25;9.27;;;6.43;;
6205;SDS011;3136;48.788;9.772;2023-02-28T07:10:55;11.33;;;6.53;;
6205;SDS011;3136;48.788;9.772;2023-02-28T07:13:21;12.17;;;6.27;;
6205;SDS011;3136;48.788;9.772;2023-02-28T07:15:54;10.23;;;6.57;;
6205;SDS011;3136;48.788;9.772;2023-02-28T07:18:27;10.00;;;6.20;;
6205;SDS011;3136;48.788;9.772;2023-02-28T07:20:53;9.53;;;6.77;;
6205;SDS011;3136;48.788;9.772;2023-02-28T07:23:18;10.20;;;6.03;;
6205;SDS011;3136;48.788;9.772;2023-02-28T07:25:44;10.87;;;6.67;;
6205;SDS011;3136;48.788;9.772;2023-02-28T07:28:10;12.40;;;5.97;;
6205;SDS011;3136;48.788;9.772;2023-02-28T07:30:37;13.13;;;6.80;;
6205;SDS011;3136;48.788;9.772;2023-02-28T07:33:02;12.53;;;7.03;;
6205;SDS011;3136;48.788;9.772;2023-02-28T07:35:28;14.07;;;6.63;;
6205;SDS011;3136;48.788;9.772;2023-02-28T07:37:54;9.27;;;6.57;;
6205;SDS011;3136;48.788;9.772;2023-02-28T07:40:22;13.73;;;6.20;;
6205;SDS011;3136;48.788;9.772;2023-02-28T07:42:48;10.80;;;6.70;;
6205;SDS011;3136;48.788;9.772;2023-02-28T07:45:13;12.47;;;6.50;;
6205;SDS011;3136;48.788;9.772;2023-02-28T07:47:39;9.33;;;6.20;;
6205;SDS011;3136;48.788;9.772;2023-02-28T07:50:07;10.47;;;7.17;;
6205;SDS011;3136;48.788;9.772;2023-02-28T07:52:34;12.10;;;6.77;;
6205;SDS011;3136;48.788;9.772;2023-02-28T07:55:01;9.40;;;6.17;;
6205;SDS011;3136;48.788;9.772;2023-02-28T07:57:26;11.93;;;6.73;;
6205;SDS011;3136;48.788;9.772;2023-02-28T07:59:52;9.33;;;6.63;;
6205;SDS011;3136;48.788;9.772;2023-02-28T08:02:18;9.70;;;6.43;;
6205;SDS011;3136;48.788;9.772;2023-02-28T08:04:44;11.10;;;7.00;;
6205;SDS011;3136;48.788;9.772;2023-02-28T08:07:12;11.53;;;6.93;;
6205;SDS011;3136;48.788;9.772;2023-02-28T08:09:38;11.40;;;7.20;;
6205;SDS011;3136;48.788;9.772;2023-02-28T08:12:04;13.03;;;7.30;;
6205;SDS011;3136;48.788;9.772;2023-02-28T08:14:30;13.20;;;6.77;;
6205;SDS011;3136;48.788;9.772;2023-02-28T08:16:56;12.73;;;6.77;;
6205;SDS011;3136;48.788;9.772;2023-02-28T08:19:22;10.67;;;6.90;;
6205;SDS011;3136;48.788;9.772;2023-02-28T08:21:47;10.57;;;6.90;;
6205;SDS011;3136;48.788;9.772;2023-02-28T08:24:13;9.43;;;7.00;;
6205;SDS011;3136;48.788;9.772;2023-02-28T08:26:39;11.43;;;7.10;;
6205;SDS011;3136;48.788;9.772;2023-02-28T08:29:04;9.47;;;6.70;;
6205;SDS011;3136;48.788;9.772;2023-02-28T08:31:30;11.43;;;7.00;;
6205;SDS011;3136;48.788;9.772;2023-02-28T08:33:55;9.73;;;6.80;;
6205;SDS011;3136;48.788;9.772;2023-02-28T08:36:23;10.67;;;6.60;;
6205;SDS011;3136;48.788;9.772;2023-02-28T08:38:49;10.90;;;7.50;;
6205;SDS011;3136;48.788;9.772;2023-02-28T08:41:14;11.07;;;7.73;;
6205;SDS011;3136;48.788;9.772;2023-02-28T08:43:40;10.77;;;7.03;;
6205;SDS011;3136;48.788;9.772;2023-02-28T08:46:06;11.30;;;6.60;;
6205;SDS011;3136;48.788;9.772;2023-02-28T08:48:33;11.83;;;7.13;;
6205;SDS011;3136;48.788;9.772;2023-02-28T08:51:07;11.03;;;6.93;;
6205;SDS011;3136;48.788;9.772;2023-02-28T08:53:38;12.27;;;7.13;;
6205;SDS011;3136;48.788;9.772;2023-02-28T08:56:05;11.70;;;7.30;;
6205;SDS011;3136;48.788;9.772;2023-02-28T08:58:35;9.67;;;7.13;;
6205;SDS011;3136;48.788;9.772;2023-02-28T09:01:07;10.20;;;7.17;;
6205;SDS011;3136;48.788;9.772;2023-02-28T09:03:40;12.10;;;7.57;;
6205;SDS011;3136;48.788;9.772;2023-02-28T09:06:07;15.90;;;7.87;;
6205;SDS011;3136;48.788;9.772;2023-02-28T09:08:35;11.63;;;7.17;;
6205;SDS011;3136;48.788;9.772;2023-02-28T09:11:01;11.10;;;6.90;;
6205;SDS011;3136;48.788;9.772;2023-02-28T09:13:28;10.83;;;7.13;;
6205;SDS011;3136;48.788;9.772;2023-02-28T09:15:54;12.80;;;7.33;;
6205;SDS011;3136;48.788;9.772;2023-02-28T09:18:23;10.53;;;6.70;;
6205;SDS011;3136;48.788;9.772;2023-02-28T09:20:48;11.03;;;7.00;;
6205;SDS011;3136;48.788;9.772;2023-02-28T09:23:15;13.77;;;7.13;;
6205;SDS011;3136;48.788;9.772;2023-02-28T09:25:45;10.57;;;7.17;;
6205;SDS011;3136;48.788;9.772;2023-02-28T09:28:19;13.80;;;7.73;;
6205;SDS011;3136;48.788;9.772;2023-02-28T09:30:46;10.87;;;7.13;;
6205;SDS011;3136;48.788;9.772;2023-02-28T09:33:13;13.47;;;7.97;;
6205;SDS011;3136;48.788;9.772;2023-02-28T09:35:39;10.80;;;6.77;;
6205;SDS011;3136;48.788;9.772;2023-02-28T09:38:05;10.33;;;6.93;;
6205;SDS011;3136;48.788;9.772;2023-02-28T09:40:34;11.57;;;7.03;;
6205;SDS011;3136;48.788;9.772;2023-02-28T09:43:02;15.60;;;7.27;;
6205;SDS011;3136;48.788;9.772;2023-02-28T09:45:30;11.00;;;7.40;;
6205;SDS011;3136;48.788;9.772;2023-02-28T09:48:03;10.80;;;7.50;;
6205;SDS011;3136;48.788;9.772;2023-02-28T09:50:50;12.43;;;7.33;;
6205;SDS011;3136;48.788;9.772;2023-02-28T09:55:58;8.97;;;6.50;;
6205;SDS011;3136;48.788;9.772;2023-02-28T10:01:27;9.33;;;6.07;;
6205;SDS011;3136;48.788;9.772;2023-02-28T10:06:35;9.33;;;6.77;;
6205;SDS011;3136;48.788;9.772;2023-02-28T10:09:20;9.03;;;6.40;;
6205;SDS011;3136;48.788;9.772;2023-02-28T10:11:50;12.33;;;6.30;;
6205;SDS011;3136;48.788;9.772;2023-02-28T10:14:19;10.87;;;6.73;;
6205;SDS011;3136;48.788;9.772;2023-02-28T10:17:04;10.10;;;7.10;;
6205;SDS011;3136;48.788;9.772;2023-02-28T10:22:19;10.33;;;7.30;;
6205;SDS011;3136;48.788;9.772;2023-02-28T10:24:50;9.73;;;7.40;;
6205;SDS011;3136;48.788;9.772;2023-02-28T10:27:18;11.87;;;7.37;;
6205;SDS011;3136;48.788;9.772;2023-02-28T10:29:45;9.43;;;6.97;;
6205;SDS011;3136;48.788;9.772;2023-02-28T10:32:14;9.83;;;6.80;;
6205;SDS011;3136;48.788;9.772;2023-02-28T10:34:50;9.53;;;7.00;;
6205;SDS011;3136;48.788;9.772;2023-02-28T10:37:31;10.03;;;7.50;;
6205;SDS011;3136;48.788;9.772;2023-02-28T10:39:57;10.67;;;6.50;;
6205;SDS011;3136;48.788;9.772;2023-02-28T10:42:27;8.87;;;6.97;;
6205;SDS011;3136;48.788;9.772;2023-02-28T10:45:04;10.30;;;6.37;;
6205;SDS011;3136;48.788;9.772;2023-02-28T10:47:32;10.53;;;7.30;;
6205;SDS011;3136;48.788;9.772;2023-02-28T10:49:59;12.00;;;6.97;;
6205;SDS011;3136;48.788;9.772;2023-02-28T10:52:38;8.50;;;6.40;;
6205;SDS011;3136;48.788;9.772;2023-02-28T10:58:00;9.20;;;6.77;;
6205;SDS011;3136;48.788;9.772;2023-02-28T11:00:25;12.13;;;6.93;;
6205;SDS011;3136;48.788;9.772;2023-02-28T11:02:58;10.37;;;6.73;;
6205;SDS011;3136;48.788;9.772;2023-02-28T11:07:59;9.53;;;6.90;;
6205;SDS011;3136;48.788;9.772;2023-02-28T11:10:32;11.17;;;7.10;;
6205;SDS011;3136;48.788;9.772;2023-02-28T11:12:59;9.67;;;7.20;;
6205;SDS011;3136;48.788;9.772;2023-02-28T11:15:27;9.17;;;7.03;;
6205;SDS011;3136;48.788;9.772;2023-02-28T11:20:25;8.60;;;7.30;;
6205;SDS011;3136;48.788;9.772;2023-02-28T11:22:53;10.70;;;7.73;;
6205;SDS011;3136;48.788;9.772;2023-02-28T11:25:23;11.57;;;7.67;;
6205;SDS011;3136;48.788;9.772;2023-02-28T11:27:51;11.40;;;7.30;;
6205;SDS011;3136;48.788;9.772;2023-02-28T11:30:26;8.77;;;6.67;;
6205;SDS011;3136;48.788;9.772;2023-02-28T11:32:54;8.60;;;6.70;;
6205;SDS011;3136;48.788;9.772;2023-02-28T11:35:24;7.87;;;6.57;;
6205;SDS011;3136;48.788;9.772;2023-02-28T11:37:59;7.50;;;6.53;;
6205;SDS011;3136;48.788;9.772;2023-02-28T11:40:30;8.43;;;6.30;;
6205;SDS011;3136;48.788;9.772;2023-02-28T11:51:40;6.97;;;6.27;;
6205;SDS011;3136;48.788;9.772;2023-02-28T11:54:47;6.37;;;5.43;;
6205;SDS011;3136;48.788;9.772;2023-02-28T12:02:52;8.10;;;6.30;;
6205;SDS011;3136;48.788;9.772;2023-02-28T12:05:34;7.30;;;5.70;;
6205;SDS011;3136;48.788;9.772;2023-02-28T12:08:26;6.37;;;5.67;;
6205;SDS011;3136;48.788;9.772;2023-02-28T12:13:36;6.60;;;5.60;;
6205;SDS011;3136;48.788;9.772;2023-02-28T12:22:11;6.40;;;5.80;;
6205;SDS011;3136;48.788;9.772;2023-02-28T12:27:20;7.30;;;5.77;;
6205;SDS011;3136;48.788;9.772;2023-02-28T12:29:50;8.17;;;5.97;;
6205;SDS011;3136;48.788;9.772;2023-02-28T12:34:49;9.07;;;5.90;;
6205;SDS011;3136;48.788;9.772;2023-02-28T12:37:23;7.70;;;5.87;;
6205;SDS011;3136;48.788;9.772;2023-02-28T12:39:57;8.23;;;5.73;;
6205;SDS011;3136;48.788;9.772;2023-02-28T12:43:14;6.53;;;5.83;;
6205;SDS011;3136;48.788;9.772;2023-02-28T12:45:23;8.83;;;5.80;;
6205;SDS011;3136;48.788;9.772;2023-02-28T12:47:57;7.20;;;5.53;;
6205;SDS011;3136;48.788;9.772;2023-02-28T12:50:26;6.00;;;5.40;;
6205;SDS011;3136;48.788;9.772;2023-02-28T12:55:40;7.93;;;6.27;;
6205;SDS011;3136;48.788;9.772;2023-02-28T12:58:56;8.63;;;5.67;;
6205;SDS011;3136;48.788;9.772;2023-02-28T13:09:56;7.43;;;5.80;;
6205;SDS011;3136;48.788;9.772;2023-02-28T13:12:24;8.40;;;5.90;;
6205;SDS011;3136;48.788;9.772;2023-02-28T13:17:24;6.80;;;5.27;;
6205;SDS011;3136;48.788;9.772;2023-02-28T13:24:55;7.50;;;5.90;;
6205;SDS011;3136;48.788;9.772;2023-02-28T13:29:49;6.60;;;5.87;;
6205;SDS011;3136;48.788;9.772;2023-02-28T13:32:28;7.57;;;6.43;;
6205;SDS011;3136;48.788;9.772;2023-02-28T13:39:53;9.17;;;6.30;;
6205;SDS011;3136;48.788;9.772;2023-02-28T13:42:37;7.57;;;6.17;;
6205;SDS011;3136;48.788;9.772;2023-02-28T13:47:52;8.40;;;6.27;;
6205;SDS011;3136;48.788;9.772;2023-02-28T14:07:21;13.03;;;6.30;;
6205;SDS011;3136;48.788;9.772;2023-02-28T14:09:52;8.00;;;6.57;;
6205;SDS011;3136;48.788;9.772;2023-02-28T14:18:21;9.67;;;6.93;;
6205;SDS011;3136;48.788;9.772;2023-02-28T14:20:47;7.63;;;6.20;;
6205;SDS011;3136;48.788;9.772;2023-02-28T14:29:29;10.57;;;6.33;;
6205;SDS011;3136;48.788;9.772;2023-02-28T14:32:35;12.10;;;7.13;;
6205;SDS011;3136;48.788;9.772;2023-02-28T14:38:12;11.43;;;7.20;;
6205;SDS011;3136;48.788;9.772;2023-02-28T14:40:42;9.37;;;7.07;;
6205;SDS011;3136;48.788;9.772;2023-02-28T14:43:19;10.67;;;7.30;;
6205;SDS011;3136;48.788;9.772;2023-02-28T14:45:49;11.23;;;6.40;;
6205;SDS011;3136;48.788;9.772;2023-02-28T14:48:25;9.07;;;6.67;;
6205;SDS011;3136;48.788;9.772;2023-02-28T14:51:00;14.13;;;6.80;;
6205;SDS011;3136;48.788;9.772;2023-02-28T14:53:30;7.73;;;6.30;;
6205;SDS011;3136;48.788;9.772;2023-02-28T14:56:01;14.80;;;7.40;;
6205;SDS011;3136;48.788;9.772;2023-02-28T14:58:28;12.30;;;6.70;;
6205;SDS011;3136;48.788;9.772;2023-02-28T15:00:56;12.67;;;7.03;;
6205;SDS011;3136;48.788;9.772;2023-02-28T15:03:24;8.23;;;6.73;;
6205;SDS011;3136;48.788;9.772;2023-02-28T15:05:59;9.37;;;6.93;;
6205;SDS011;3136;48.788;9.772;2023-02-28T15:08:27;12.37;;;6.93;;
6205;SDS011;3136;48.788;9.772;2023-02-28T15:13:27;7.60;;;6.70;;
6205;SDS011;3136;48.788;9.772;2023-02-28T15:18:47;8.33;;;6.70;;
6205;SDS011;3136;48.788;9.772;2023-02-28T15:21:18;7.60;;;6.67;;
6205;SDS011;3136;48.788;9.772;2023-02-28T15:26:50;8.17;;;6.57;;
6205;SDS011;3136;48.788;9.772;2023-02-28T15:29:22;7.87;;;6.33;;
6205;SDS011;3136;48.788;9.772;2023-02-28T15:32:20;10.73;;;7.03;;
6205;SDS011;3136;48.788;9.772;2023-02-28T15:34:45;10.60;;;7.10;;
6205;SDS011;3136;48.788;9.772;2023-02-28T15:42:38;10.63;;;7.63;;
6205;SDS011;3136;48.788;9.772;2023-02-28T15:45:04;9.67;;;6.90;;
6205;SDS011;3136;48.788;9.772;2023-02-28T15:47:30;9.10;;;6.80;;
6205;SDS011;3136;48.788;9.772;2023-02-28T15:50:10;9.20;;;7.03;;
6205;SDS011;3136;48.788;9.772;2023-02-28T15:52:40;8.77;;;7.13;;
6205;SDS011;3136;48.788;9.772;2023-02-28T15:57:34;13.30;;;7.70;;
6205;SDS011;3136;48.788;9.772;2023-02-28T16:00:00;11.97;;;7.40;;
6205;SDS011;3136;48.788;9.772;2023-02-28T16:02:35;9.87;;;7.80;;
6205;SDS011;3136;48.788;9.772;2023-02-28T16:05:16;10.30;;;7.37;;
6205;SDS011;3136;48.788;9.772;2023-02-28T16:07:55;11.13;;;7.43;;
6205;SDS011;3136;48.788;9.772;2023-02-28T16:10:22;11.07;;;7.43;;
6205;SDS011;3136;48.788;9.772;2023-02-28T16:12:51;10.27;;;7.67;;
6205;SDS011;3136;48.788;9.772;2023-02-28T16:15:20;9.13;;;7.23;;
6205;SDS011;3136;48.788;9.772;2023-02-28T16:17:48;10.23;;;7.30;;
6205;SDS011;3136;48.788;9.772;2023-02-28T16:20:15;12.13;;;7.63;;
6205;SDS011;3136;48.788;9.772;2023-02-28T16:22:44;10.37;;;7.70;;
6205;SDS011;3136;48.788;9.772;2023-02-28T16:25:13;12.93;;;7.93;;
6205;SDS011;3136;48.788;9.772;2023-02-28T16:27:41;10.07;;;8.23;;
6205;SDS011;3136;48.788;9.772;2023-02-28T16:30:13;10.87;;;7.47;;
6205;SDS011;3136;48.788;9.772;2023-02-28T16:32:43;11.80;;;8.07;;
6205;SDS011;3136;48.788;9.772;2023-02-28T16:35:11;10.10;;;7.57;;
6205;SDS011;3136;48.788;9.772;2023-02-28T16:37:38;11.73;;;7.80;;
6205;SDS011;3136;48.788;9.772;2023-02-28T16:40:04;12.47;;;8.10;;
6205;SDS011;3136;48.788;9.772;2023-02-28T16:42:31;18.00;;;8.00;;
6205;SDS011;3136;48.788;9.772;2023-02-28T16:44:57;13.33;;;7.80;;
6205;SDS011;3136;48.788;9.772;2023-02-28T16:47:23;10.70;;;7.90;;
6205;SDS011;3136;48.788;9.772;2023-02-28T16:49:49;11.70;;;8.00;;
6205;SDS011;3136;48.788;9.772;2023-02-28T16:52:14;12.80;;;8.00;;
6205;SDS011;3136;48.788;9.772;2023-02-28T16:54:41;11.60;;;8.17;;
6205;SDS011;3136;48.788;9.772;2023-02-28T16:57:08;14.27;;;8.40;;
6205;SDS011;3136;48.788;9.772;2023-02-28T16:59:43;13.63;;;7.97;;
6205;SDS011;3136;48.788;9.772;2023-02-28T17:02:12;10.47;;;7.80;;
6205;SDS011;3136;48.788;9.772;2023-02-28T17:04:39;14.20;;;8.73;;
6205;SDS011;3136;48.788;9.772;2023-02-28T17:07:04;11.83;;;8.63;;
6205;SDS011;3136;48.788;9.772;2023-02-28T17:09:33;14.07;;;9.13;;
6205;SDS011;3136;48.788;9.772;2023-02-28T17:11:58;13.27;;;8.47;;
6205;SDS011;3136;48.788;9.772;2023-02-28T17:14:24;10.73;;;8.13;;
6205;SDS011;3136;48.788;9.772;2023-02-28T17:16:49;12.53;;;8.10;;
6205;SDS011;3136;48.788;9.772;2023-02-28T17:19:15;11.40;;;8.13;;
6205;SDS011;3136;48.788;9.772;2023-02-28T17:21:41;12.43;;;8.17;;
6205;SDS011;3136;48.788;9.772;2023-02-28T17:24:08;14.03;;;8.83;;
6205;SDS011;3136;48.788;9.772;2023-02-28T17:26:37;16.33;;;9.03;;
6205;SDS011;3136;48.788;9.772;2023-02-28T17:29:14;13.10;;;8.87;;
6205;SDS011;3136;48.788;9.772;2023-02-28T17:31:41;15.77;;;8.90;;
6205;SDS011;3136;48.788;9.772;2023-02-28T17:34:07;13.97;;;9.23;;
6205;SDS011;3136;48.788;9.772;2023-02-28T17:36:32;11.50;;;7.93;;
6205;SDS011;3136;48.788;9.772;2023-02-28T17:39:00;14.27;;;8.20;;
6205;SDS011;3136;48.788;9.772;2023-02-28T17:41:26;11.20;;;7.63;;
6205;SDS011;3136;48.788;9.772;2023-02-28T17:43:52;11.33;;;7.20;;
6205;SDS011;3136;48.788;9.772;2023-02-28T17:48:45;8.40;;;6.77;;
6205;SDS011;3136;48.788;9.772;2023-02-28T17:51:12;13.37;;;6.80;;
6205;SDS011;3136;48.788;9.772;2023-02-28T17:53:38;9.53;;;6.77;;
6205;SDS011;3136;48.788;9.772;2023-02-28T17:56:04;11.33;;;7.00;;
6205;SDS011;3136;48.788;9.772;2023-02-28T17:58:30;13.00;;;6.30;;
6205;SDS011;3136;48.788;9.772;2023-02-28T18:00:58;11.07;;;6.70;;
6205;SDS011;3136;48.788;9.772;2023-02-28T18:03:24;8.67;;;6.63;;
6205;SDS011;3136;48.788;9.772;2023-02-28T18:05:50;12.80;;;6.83;;
6205;SDS011;3136;48.788;9.772;2023-02-28T18:08:16;10.70;;;6.67;;
6205;SDS011;3136;48.788;9.772;2023-02-28T18:10:42;14.37;;;8.40;;
6205;SDS011;3136;48.788;9.772;2023-02-28T18:16:29;9.20;;;6.47;;